Madsen, Utah
Current Conditions -  °F | °C
As of 8:35 PM on Monday 26 Jan 2015 (Local Time) from KBMC Reporting Station
Clear Clear  
Wind Chill: 38°   Ceiling: Unl
Heat Index: 38°   Visibility: 7mi
Dew Point: 33°   Wind: 3mph
Humidity: 84%   Direction: 100°E
Pressure: 30.25"   Gusts: NA
Location:  41.6146°N, 112.071°W
Report Text: KBMC 270335Z AUTO 10003KT 7SM CLR 03/01 A3025 RMK AO1 T00320007
Loading
Personal Weather Stations






























Interactive Weather Map New forecast layout! Learn more

10-Day Weather Forecast

Advertisements
Track Severe Weather on mobile